Ds Blue Wave — A8YK2 — position and weather

sailwx.info

Track history (hours):
 
Tides and Currents Weather Stations Pressure Air Temp Water Temp Dewpoint Dewpoint Depression Visibility Wind Speed Wind Dir Waves Ship Positions

Ds Blue Wave

Last reported at 2018-Apr-24 16:30 UTC. Time now 2018-Apr-24 16:40 UTC.
Position N 35°02' E 136°47'.

Length 129 m; draft 7.3 m.

Type: Cargo ship. MMSI: 636092200.

Date/timePositionNaut miles runAvg speedWind from/ knotsBaromVisibWave heightAir tempDewpointWater temp
2018-Apr-24 16:30N 35°02' E 136°47'0 0.0
2018-Apr-24 16:00N 35°02' E 136°47'0 0.0
2018-Apr-24 15:30N 35°02' E 136°47'0 0.0
2018-Apr-24 15:00N 35°02' E 136°47'0 0.0
2018-Apr-24 14:30N 35°02' E 136°47'0 0.0
2018-Apr-24 14:00N 35°02' E 136°47'0 0.0
2018-Apr-24 13:30N 35°02' E 136°47'0 0.0
2018-Apr-24 13:00N 35°02' E 136°47'0 0.0
2018-Apr-24 12:30N 35°02' E 136°47'0 0.0
2018-Apr-24 12:00N 35°02' E 136°47'0 0.0
2018-Apr-24 11:30N 35°02' E 136°47'0 0.0
2018-Apr-24 11:00N 35°02' E 136°47'0 0.0
2018-Apr-24 10:30N 35°02' E 136°47'0 0.0
2018-Apr-24 10:00N 35°02' E 136°47'0 0.0
2018-Apr-24 09:30N 35°02' E 136°47'0 0.6
2018-Apr-24 09:00N 35°01' E 136°48'3 5.5
2018-Apr-24 08:30N 34°59' E 136°46'4 8.9
2018-Apr-24 08:00N 34°55' E 136°46'713.1
2018-Apr-24 07:30N 34°48' E 136°46'712.8
2018-Apr-24 06:59N 34°42' E 136°50'25312.3
2018-Apr-23 10:24N 33°12' E 132°05'716.7
2018-Apr-23 10:00N 33°18' E 131°60'816.1
2018-Apr-23 09:29N 33°25' E 131°55'715.7
2018-Apr-23 09:00N 33°32' E 131°51'816.1
2018-Apr-23 08:30N 33°39' E 131°46'815.6
2018-Apr-23 08:01N 33°45' E 131°41'815.6
2018-Apr-23 07:30N 33°48' E 131°32'815.6
2018-Apr-23 07:00N 33°49' E 131°23'815.6
2018-Apr-23 06:30N 33°51' E 131°14'715.2
2018-Apr-23 06:00N 33°55' E 131°06'713.7
2018-Apr-23 05:30N 33°58' E 130°59'5 9.1
2018-Apr-23 05:00N 33°55' E 130°56'4 8.1
2018-Apr-23 04:30N 33°57' E 130°51'612.1
2018-Apr-23 04:00N 34°02' E 130°48'815.5
2018-Apr-23 03:30N 34°02' E 130°39'815.7
2018-Apr-23 03:00N 34°02' E 130°29'815.9
2018-Apr-23 02:30N 34°02' E 130°20'815.9
2018-Apr-23 02:00N 34°02' E 130°10'48913.8
2018-Apr-21 14:38N 35°59' E 120°30'2 7.9
2018-Apr-21 14:20N 35°60' E 120°27'7 8.9
2018-Apr-21 13:33N 36°01' E 120°19'2 7.6
2018-Apr-21 13:18N 36°01' E 120°17'4 7.2
2018-Apr-21 12:49N 36°01' E 120°13'0 0.0
2018-Apr-21 12:17N 36°01' E 120°13'0 0.0
2018-Apr-21 11:59N 36°01' E 120°13'0 0.0
2018-Apr-21 10:50N 36°01' E 120°13'0 0.0
2018-Apr-21 10:17N 36°01' E 120°13'0 0.0
2018-Apr-21 09:59N 36°01' E 120°13'0 0.0
2018-Apr-21 09:27N 36°01' E 120°13'0 0.0
2018-Apr-21 08:53N 36°01' E 120°13'0 0.0
2018-Apr-21 07:59N 36°01' E 120°13'0 0.0
2018-Apr-21 07:26N 36°01' E 120°13'0 0.0
2018-Apr-21 06:17N 36°01' E 120°13'0 0.0
2018-Apr-21 05:38N 36°01' E 120°13'0 0.0
2018-Apr-21 05:20N 36°01' E 120°13'0 0.0
2018-Apr-21 04:59N 36°01' E 120°13'0 0.0
2018-Apr-21 03:50N 36°01' E 120°13'0 0.0
2018-Apr-21 03:23N 36°01' E 120°13'0 0.0
2018-Apr-21 02:53N 36°01' E 120°13'0 0.0
2018-Apr-21 01:41N 36°01' E 120°13'0 0.0
2018-Apr-21 01:20N 36°01' E 120°13'0 0.0
2018-Apr-21 00:59N 36°01' E 120°13'0 0.0
2018-Apr-21 00:23N 36°01' E 120°13'0 0.0
2018-Apr-20 23:50N 36°01' E 120°13'0 0.0
2018-Apr-20 23:11N 36°01' E 120°13'0 0.0
2018-Apr-20 22:53N 36°01' E 120°13'0 0.0
2018-Apr-20 22:17N 36°01' E 120°13'0 0.0
2018-Apr-20 21:59N 36°01' E 120°13'14 6.8
2018-Apr-20 19:58N 35°60' E 120°30'  
2018-Apr-15 05:15N 34°02' E 129°59'312.4
2018-Apr-15 05:01N 34°02' E 130°02'612.3
2018-Apr-15 04:30N 34°02' E 130°10'611.7
2018-Apr-15 04:01N 34°02' E 130°17'611.6
2018-Apr-15 03:30N 34°03' E 130°24'611.3
2018-Apr-15 03:01N 34°03' E 130°31'611.4
2018-Apr-15 02:30N 34°03' E 130°37'611.5
2018-Apr-15 02:00N 34°02' E 130°44'611.1
2018-Apr-15 01:31N 34°01' E 130°51'510.6
2018-Apr-15 01:00N 33°56' E 130°53'5 9.2
2018-Apr-15 00:30N 33°58' E 130°58'611.9
2018-Apr-15 00:01N 33°56' E 131°05'612.0
2018-Apr-14 23:30N 33°53' E 131°11'612.0
2018-Apr-14 23:01N 33°51' E 131°17'713.8
2018-Apr-14 22:30N 33°49' E 131°26'613.0
2018-Apr-14 22:00N 33°48' E 131°33'611.9
2018-Apr-14 21:30N 33°47' E 131°40'612.6
2018-Apr-14 21:00N 33°45' E 131°48'1912.3
2018-Apr-14 19:27N 33°43' E 132°10'1612.3
2018-Apr-14 18:07N 33°48' E 132°29'211.3
2018-Apr-14 17:59N 33°49' E 132°31'912.1
2018-Apr-14 17:13N 33°55' E 132°39'313.2
2018-Apr-14 17:00N 33°57' E 132°42'  
Track history (hours):
 
Tides and Currents Weather Stations Pressure Air Temp Water Temp Dewpoint Dewpoint Depression Visibility Wind Speed Wind Dir Waves Ship Positions

Ds Blue Wave

Last reported at 2018-Apr-24 16:30 UTC. Time now 2018-Apr-24 16:40 UTC.
Position N 35°02' E 136°47'.

Length 129 m; draft 7.3 m.

Type: Cargo ship. MMSI: 636092200.

Date/timePositionNaut miles runAvg speedWind from/ knotsBaromVisibWave heightAir tempDewpointWater temp
2018-Apr-24 16:30N 35°02' E 136°47'0 0.0
2018-Apr-24 16:00N 35°02' E 136°47'0 0.0
2018-Apr-24 15:30N 35°02' E 136°47'0 0.0
2018-Apr-24 15:00N 35°02' E 136°47'0 0.0
2018-Apr-24 14:30N 35°02' E 136°47'0 0.0
2018-Apr-24 14:00N 35°02' E 136°47'0 0.0
2018-Apr-24 13:30N 35°02' E 136°47'0 0.0
2018-Apr-24 13:00N 35°02' E 136°47'0 0.0
2018-Apr-24 12:30N 35°02' E 136°47'0 0.0
2018-Apr-24 12:00N 35°02' E 136°47'0 0.0
2018-Apr-24 11:30N 35°02' E 136°47'0 0.0
2018-Apr-24 11:00N 35°02' E 136°47'0 0.0
2018-Apr-24 10:30N 35°02' E 136°47'0 0.0
2018-Apr-24 10:00N 35°02' E 136°47'0 0.0
2018-Apr-24 09:30N 35°02' E 136°47'0 0.6
2018-Apr-24 09:00N 35°01' E 136°48'3 5.5
2018-Apr-24 08:30N 34°59' E 136°46'4 8.9
2018-Apr-24 08:00N 34°55' E 136°46'713.1
2018-Apr-24 07:30N 34°48' E 136°46'712.8
2018-Apr-24 06:59N 34°42' E 136°50'25312.3
2018-Apr-23 10:24N 33°12' E 132°05'716.7
2018-Apr-23 10:00N 33°18' E 131°60'816.1
2018-Apr-23 09:29N 33°25' E 131°55'715.7
2018-Apr-23 09:00N 33°32' E 131°51'816.1
2018-Apr-23 08:30N 33°39' E 131°46'815.6
2018-Apr-23 08:01N 33°45' E 131°41'815.6
2018-Apr-23 07:30N 33°48' E 131°32'815.6
2018-Apr-23 07:00N 33°49' E 131°23'815.6
2018-Apr-23 06:30N 33°51' E 131°14'715.2
2018-Apr-23 06:00N 33°55' E 131°06'713.7
2018-Apr-23 05:30N 33°58' E 130°59'5 9.1
2018-Apr-23 05:00N 33°55' E 130°56'4 8.1
2018-Apr-23 04:30N 33°57' E 130°51'612.1
2018-Apr-23 04:00N 34°02' E 130°48'815.5
2018-Apr-23 03:30N 34°02' E 130°39'815.7
2018-Apr-23 03:00N 34°02' E 130°29'815.9
2018-Apr-23 02:30N 34°02' E 130°20'815.9
2018-Apr-23 02:00N 34°02' E 130°10'48913.8
2018-Apr-21 14:38N 35°59' E 120°30'2 7.9
2018-Apr-21 14:20N 35°60' E 120°27'7 8.9
2018-Apr-21 13:33N 36°01' E 120°19'2 7.6
2018-Apr-21 13:18N 36°01' E 120°17'4 7.2
2018-Apr-21 12:49N 36°01' E 120°13'0 0.0
2018-Apr-21 12:17N 36°01' E 120°13'0 0.0
2018-Apr-21 11:59N 36°01' E 120°13'0 0.0
2018-Apr-21 10:50N 36°01' E 120°13'0 0.0
2018-Apr-21 10:17N 36°01' E 120°13'0 0.0
2018-Apr-21 09:59N 36°01' E 120°13'0 0.0
2018-Apr-21 09:27N 36°01' E 120°13'0 0.0
2018-Apr-21 08:53N 36°01' E 120°13'0 0.0
2018-Apr-21 07:59N 36°01' E 120°13'0 0.0
2018-Apr-21 07:26N 36°01' E 120°13'0 0.0
2018-Apr-21 06:17N 36°01' E 120°13'0 0.0
2018-Apr-21 05:38N 36°01' E 120°13'0 0.0
2018-Apr-21 05:20N 36°01' E 120°13'0 0.0
2018-Apr-21 04:59N 36°01' E 120°13'0 0.0
2018-Apr-21 03:50N 36°01' E 120°13'0 0.0
2018-Apr-21 03:23N 36°01' E 120°13'0 0.0
2018-Apr-21 02:53N 36°01' E 120°13'0 0.0
2018-Apr-21 01:41N 36°01' E 120°13'0 0.0
2018-Apr-21 01:20N 36°01' E 120°13'0 0.0
2018-Apr-21 00:59N 36°01' E 120°13'0 0.0
2018-Apr-21 00:23N 36°01' E 120°13'0 0.0
2018-Apr-20 23:50N 36°01' E 120°13'0 0.0
2018-Apr-20 23:11N 36°01' E 120°13'0 0.0
2018-Apr-20 22:53N 36°01' E 120°13'0 0.0
2018-Apr-20 22:17N 36°01' E 120°13'0 0.0
2018-Apr-20 21:59N 36°01' E 120°13'14 6.8
2018-Apr-20 19:58N 35°60' E 120°30'  
2018-Apr-15 05:15N 34°02' E 129°59'312.4
2018-Apr-15 05:01N 34°02' E 130°02'612.3
2018-Apr-15 04:30N 34°02' E 130°10'611.7
2018-Apr-15 04:01N 34°02' E 130°17'611.6
2018-Apr-15 03:30N 34°03' E 130°24'611.3
2018-Apr-15 03:01N 34°03' E 130°31'611.4
2018-Apr-15 02:30N 34°03' E 130°37'611.5
2018-Apr-15 02:00N 34°02' E 130°44'611.1
2018-Apr-15 01:31N 34°01' E 130°51'510.6
2018-Apr-15 01:00N 33°56' E 130°53'5 9.2
2018-Apr-15 00:30N 33°58' E 130°58'611.9
2018-Apr-15 00:01N 33°56' E 131°05'612.0
2018-Apr-14 23:30N 33°53' E 131°11'612.0
2018-Apr-14 23:01N 33°51' E 131°17'713.8
2018-Apr-14 22:30N 33°49' E 131°26'613.0
2018-Apr-14 22:00N 33°48' E 131°33'611.9
2018-Apr-14 21:30N 33°47' E 131°40'612.6
2018-Apr-14 21:00N 33°45' E 131°48'1912.3
2018-Apr-14 19:27N 33°43' E 132°10'1612.3
2018-Apr-14 18:07N 33°48' E 132°29'211.3
2018-Apr-14 17:59N 33°49' E 132°31'912.1
2018-Apr-14 17:13N 33°55' E 132°39'313.2
2018-Apr-14 17:00N 33°57' E 132°42'  

Dump ship's entire track history